Time;durP1;ratioP1;P1;durP2;ratioP2;P2;SDS_P1;SDS_P2;PMS_P1;PMS_P2;Temp;Humidity;BMP_temperature;BMP_pressure;BME280_temperature;BME280_humidity;BME280_pressure;Samples;Min_cycle;Max_cycle;Signal;HPM_P1;HPM_P2
2022/05/31 00:00:36;;;;;;;43.50;25.83;;;15.80;99.90;;;;;;4988848;28;20042;-72
2022/05/31 00:03:04;;;;;;;42.30;27.92;;;15.80;99.90;;;;;;4987547;28;20137;-72
2022/05/31 00:05:31;;;;;;;40.03;26.50;;;15.80;99.90;;;;;;4987801;28;20101;-72
2022/05/31 00:07:56;;;;;;;44.90;28.55;;;15.80;99.90;;;;;;4989960;28;20089;-74
2022/05/31 00:10:22;;;;;;;46.10;28.33;;;15.80;99.90;;;;;;4990523;28;20042;-71
2022/05/31 00:12:49;;;;;;;47.00;26.30;;;15.80;99.90;;;;;;4990766;28;20019;-72
2022/05/31 00:15:17;;;;;;;39.80;26.67;;;15.90;99.90;;;;;;4990668;28;20030;-69
2022/05/31 00:17:43;;;;;;;39.60;25.30;;;15.90;99.90;;;;;;4990123;28;20092;-74
2022/05/31 00:20:11;;;;;;;42.75;28.02;;;15.80;99.90;;;;;;4989304;28;20034;-70
2022/05/31 00:22:38;;;;;;;47.97;27.60;;;15.80;99.90;;;;;;4989428;28;20168;-72
2022/05/31 00:25:05;;;;;;;45.08;25.15;;;15.90;99.90;;;;;;4990666;28;20030;-73
2022/05/31 00:27:31;;;;;;;46.95;27.08;;;15.90;99.90;;;;;;4990238;28;20034;-73
2022/05/31 00:29:58;;;;;;;40.35;25.33;;;15.90;99.90;;;;;;4989488;28;20042;-68
2022/05/31 00:32:27;;;;;;;47.05;26.25;;;16.00;99.90;;;;;;4990332;28;20034;-71
2022/05/31 00:34:56;;;;;;;39.15;26.23;;;16.00;99.90;;;;;;5005600;28;20262;-73
2022/05/31 00:37:23;;;;;;;40.00;24.58;;;16.00;99.90;;;;;;4990885;28;20030;-69
2022/05/31 00:39:49;;;;;;;40.00;23.15;;;16.10;99.90;;;;;;4990552;28;20030;-71
2022/05/31 00:42:20;;;;;;;34.38;24.65;;;16.10;99.90;;;;;;4991954;28;20527;-73
2022/05/31 00:44:46;;;;;;;35.80;23.10;;;16.10;99.90;;;;;;5024164;28;20112;-72
2022/05/31 00:47:16;;;;;;;39.30;24.20;;;16.10;99.90;;;;;;4991775;28;20089;-73
2022/05/31 00:49:48;;;;;;;38.55;25.92;;;16.10;99.90;;;;;;4992948;28;20057;-69
2022/05/31 00:52:18;;;;;;;36.22;23.90;;;16.10;99.90;;;;;;5025876;28;20054;-70
2022/05/31 00:55:01;;;;;;;41.13;23.92;;;16.20;99.90;;;;;;5007056;28;20026;-68
2022/05/31 00:57:27;;;;;;;35.38;22.73;;;16.20;99.90;;;;;;5000210;28;20030;-75
2022/05/31 00:59:59;;;;;;;30.33;21.15;;;16.20;99.90;;;;;;4993557;28;20033;-72
2022/05/31 01:02:25;;;;;;;30.00;20.95;;;16.10;99.90;;;;;;4995025;28;20069;-68
2022/05/31 01:04:56;;;;;;;38.25;23.15;;;16.10;99.90;;;;;;4993930;28;20075;-68
2022/05/31 01:07:22;;;;;;;36.13;23.30;;;16.10;99.90;;;;;;4994901;28;20113;-73
2022/05/31 01:09:49;;;;;;;35.28;22.63;;;16.00;99.90;;;;;;5025949;28;20133;-74
2022/05/31 01:12:35;;;;;;;36.22;21.95;;;16.10;99.90;;;;;;4994548;28;20038;-73
2022/05/31 01:15:21;;;;;;;39.15;23.67;;;16.10;99.90;;;;;;4997844;28;20185;-68
2022/05/31 01:18:06;;;;;;;34.92;22.77;;;16.20;99.90;;;;;;4994656;28;20034;-69
2022/05/31 01:20:50;;;;;;;36.05;22.63;;;16.20;99.90;;;;;;4994131;28;20089;-72
2022/05/31 01:23:25;;;;;;;33.30;20.90;;;16.30;99.90;;;;;;5009095;28;20038;-74
2022/05/31 01:26:00;;;;;;;32.92;21.85;;;16.30;99.90;;;;;;4994343;28;20043;-74
2022/05/31 01:28:43;;;;;;;33.97;22.35;;;16.30;99.90;;;;;;5001749;28;20059;-73
2022/05/31 01:31:18;;;;;;;39.13;21.48;;;16.30;99.90;;;;;;4994527;28;20042;-71
2022/05/31 01:33:50;;;;;;;31.13;20.67;;;16.30;99.90;;;;;;4994390;28;20048;-73
2022/05/31 01:36:22;;;;;;;33.38;21.00;;;16.30;99.90;;;;;;4994516;28;20076;-74
2022/05/31 01:39:11;;;;;;;29.40;22.00;;;16.30;99.90;;;;;;5017869;28;20042;-72
2022/05/31 01:42:02;;;;;;;33.72;21.17;;;16.20;99.90;;;;;;5003654;28;20065;-74
2022/05/31 01:44:32;;;;;;;27.98;19.88;;;16.30;99.90;;;;;;5009344;28;20033;-71
2022/05/31 01:47:00;;;;;;;33.33;20.25;;;16.30;99.90;;;;;;4993024;28;20042;-74
2022/05/31 01:49:36;;;;;;;28.83;20.02;;;16.20;99.90;;;;;;5025504;28;20143;-71
2022/05/31 01:52:03;;;;;;;31.67;20.50;;;16.20;99.90;;;;;;4993526;28;20038;-73
2022/05/31 01:54:30;;;;;;;33.03;21.23;;;16.20;99.90;;;;;;5009612;28;20125;-69
2022/05/31 01:57:01;;;;;;;36.35;22.27;;;16.20;99.90;;;;;;4993717;28;20031;-73
2022/05/31 01:59:33;;;;;;;36.60;21.70;;;16.20;99.90;;;;;;5015240;28;20378;-74
2022/05/31 02:02:01;;;;;;;35.97;21.30;;;16.10;99.90;;;;;;4997344;28;20459;-73
2022/05/31 02:04:26;;;;;;;29.45;19.63;;;16.10;99.90;;;;;;5014679;28;20038;-73
2022/05/31 02:07:10;;;;;;;38.30;23.70;;;16.10;99.90;;;;;;5014018;28;20714;-73
2022/05/31 02:09:38;;;;;;;33.05;21.25;;;16.10;99.90;;;;;;4995993;28;20038;-74
2022/05/31 02:12:07;;;;;;;32.53;21.50;;;16.10;99.90;;;;;;5025191;28;20030;-71
2022/05/31 02:14:35;;;;;;;31.17;20.98;;;16.10;99.90;;;;;;4992405;28;20033;-70
2022/05/31 02:17:01;;;;;;;32.33;21.83;;;16.10;99.90;;;;;;4992304;28;20128;-73
2022/05/31 02:19:48;;;;;;;27.20;18.52;;;16.20;99.90;;;;;;4993616;28;20173;-71
2022/05/31 02:22:26;;;;;;;31.27;20.45;;;16.20;99.90;;;;;;4992243;28;20033;-74
2022/05/31 02:24:52;;;;;;;29.88;19.02;;;16.20;99.90;;;;;;4992330;28;20125;-73
2022/05/31 02:27:18;;;;;;;33.05;19.00;;;16.20;99.90;;;;;;4992708;28;20067;-73
2022/05/31 02:29:44;;;;;;;32.88;20.25;;;16.20;99.90;;;;;;5025139;28;20065;-73
2022/05/31 02:32:12;;;;;;;31.00;18.15;;;16.10;99.90;;;;;;4992569;28;20428;-73
2022/05/31 02:34:44;;;;;;;29.38;18.70;;;16.00;99.90;;;;;;4993386;28;20063;-71
2022/05/31 02:37:13;;;;;;;28.63;18.40;;;16.10;99.90;;;;;;5025351;28;20026;-73
2022/05/31 02:39:39;;;;;;;34.38;18.30;;;16.00;99.90;;;;;;4993352;28;20571;-72
2022/05/31 02:42:06;;;;;;;28.60;16.98;;;16.00;99.90;;;;;;4993562;28;20058;-71
2022/05/31 02:44:33;;;;;;;30.85;18.30;;;16.00;99.90;;;;;;4992459;28;20493;-73
2022/05/31 02:46:59;;;;;;;29.20;16.75;;;15.90;99.90;;;;;;4992049;28;20057;-74
2022/05/31 02:49:25;;;;;;;28.42;18.05;;;15.90;99.90;;;;;;5024298;28;20061;-73
2022/05/31 02:51:53;;;;;;;28.50;18.25;;;15.90;99.90;;;;;;5005043;28;20033;-73
2022/05/31 02:54:20;;;;;;;29.55;19.05;;;15.90;99.90;;;;;;5010598;28;20357;-72
2022/05/31 02:57:26;;;;;;;28.63;18.38;;;15.90;99.90;;;;;;4951368;29;20061;-70
2022/05/31 03:00:15;;;;;;;29.70;18.92;;;15.90;99.90;;;;;;4946421;28;20453;-72
2022/05/31 03:02:44;;;;;;;31.50;20.52;;;15.90;99.90;;;;;;4950760;29;20035;-68
2022/05/31 03:05:28;;;;;;;33.33;22.35;;;15.90;99.90;;;;;;4946156;29;20063;-73
2022/05/31 03:08:10;;;;;;;31.83;20.00;;;15.80;99.90;;;;;;4958080;28;20039;-69
2022/05/31 03:10:54;;;;;;;31.65;21.30;;;15.80;99.90;;;;;;4948773;29;20065;-74
2022/05/31 03:13:24;;;;;;;37.58;22.02;;;15.90;99.90;;;;;;4966654;28;20031;-72
2022/05/31 03:15:55;;;;;;;33.97;22.65;;;15.80;99.90;;;;;;4944665;29;20048;-72
2022/05/31 03:18:25;;;;;;;36.40;22.92;;;15.80;99.90;;;;;;4931676;29;21028;-67
2022/05/31 03:20:54;;;;;;;37.25;23.10;;;15.80;99.90;;;;;;4947523;28;20110;-70
2022/05/31 03:23:30;;;;;;;32.88;22.02;;;15.70;99.90;;;;;;4933145;29;20075;-73
2022/05/31 03:26:00;;;;;;;34.78;22.70;;;15.80;99.90;;;;;;4950939;28;20142;-73
2022/05/31 03:28:27;;;;;;;37.30;23.88;;;15.80;99.90;;;;;;4970794;28;20129;-71
2022/05/31 03:30:54;;;;;;;37.10;24.75;;;15.80;99.90;;;;;;5010885;28;20038;-71
2022/05/31 03:33:20;;;;;;;39.03;23.13;;;15.80;99.90;;;;;;5023201;28;20061;-74
2022/05/31 03:35:46;;;;;;;39.60;24.38;;;15.80;99.90;;;;;;4991603;28;20105;-71
2022/05/31 03:38:19;;;;;;;43.92;24.38;;;15.80;99.90;;;;;;4990323;28;20108;-74
2022/05/31 03:41:01;;;;;;;36.72;26.08;;;15.80;99.90;;;;;;4990283;28;20452;-70
2022/05/31 03:43:35;;;;;;;39.75;26.70;;;15.80;99.90;;;;;;4990030;28;20038;-73
2022/05/31 03:46:21;;;;;;;42.97;26.60;;;15.80;99.90;;;;;;4988350;28;20534;-71
2022/05/31 03:48:59;;;;;;;39.53;26.50;;;15.80;99.90;;;;;;4988993;28;20129;-66
2022/05/31 03:51:29;;;;;;;38.92;25.30;;;15.80;99.90;;;;;;4972572;28;20054;-67
2022/05/31 03:54:00;;;;;;;39.83;26.55;;;15.80;99.90;;;;;;4988782;28;20453;-74
2022/05/31 03:56:52;;;;;;;44.90;26.57;;;15.80;99.90;;;;;;4966821;28;20049;-72
2022/05/31 03:59:20;;;;;;;44.17;28.02;;;15.80;99.90;;;;;;4972832;28;20380;-74
2022/05/31 04:01:45;;;;;;;43.63;27.77;;;15.70;99.90;;;;;;4972404;28;20801;-74
2022/05/31 04:04:11;;;;;;;47.17;29.23;;;15.70;99.90;;;;;;4972697;28;20038;-74
2022/05/31 04:06:38;;;;;;;46.53;30.20;;;15.70;99.90;;;;;;4972428;28;20061;-66
2022/05/31 04:09:05;;;;;;;47.58;28.70;;;15.80;99.90;;;;;;4972534;28;20030;-73
2022/05/31 04:11:31;;;;;;;41.33;26.80;;;15.90;99.90;;;;;;4980614;28;20509;-74
2022/05/31 04:14:01;;;;;;;43.95;27.33;;;15.80;99.90;;;;;;4962597;28;20078;-73
2022/05/31 04:16:48;;;;;;;43.63;28.95;;;15.90;99.90;;;;;;4987342;28;20042;-73
2022/05/31 04:19:14;;;;;;;45.03;29.10;;;15.90;99.90;;;;;;4972862;28;20038;-74
2022/05/31 04:21:40;;;;;;;40.67;28.08;;;16.00;99.90;;;;;;4970375;28;20034;-72
2022/05/31 04:24:11;;;;;;;43.15;27.30;;;16.00;99.90;;;;;;4984650;28;20121;-71
2022/05/31 04:26:44;;;;;;;44.60;28.40;;;16.10;99.90;;;;;;4991327;28;20026;-70
2022/05/31 04:29:39;;;;;;;43.53;29.92;;;16.20;99.90;;;;;;4988849;28;20133;-72
2022/05/31 04:32:13;;;;;;;46.13;28.52;;;16.20;99.90;;;;;;4989671;28;20121;-75
2022/05/31 04:35:06;;;;;;;45.17;28.33;;;16.20;99.90;;;;;;4988892;28;20104;-69
2022/05/31 04:37:32;;;;;;;45.95;27.48;;;16.20;99.90;;;;;;4968761;28;20034;-75
2022/05/31 04:40:16;;;;;;;42.38;28.33;;;16.20;99.90;;;;;;4989475;28;20397;-75
2022/05/31 04:42:42;;;;;;;43.80;29.08;;;16.30;99.90;;;;;;4989331;28;20035;-74
2022/05/31 04:45:17;;;;;;;41.08;27.40;;;16.40;99.90;;;;;;5004490;28;20026;-74
2022/05/31 04:47:43;;;;;;;42.30;29.42;;;16.30;99.90;;;;;;4976011;28;20053;-75
2022/05/31 04:50:10;;;;;;;41.95;25.10;;;16.40;99.90;;;;;;4972524;28;20046;-75
2022/05/31 04:52:37;;;;;;;39.05;25.13;;;16.40;99.90;;;;;;4979094;28;20034;-75
2022/05/31 04:55:05;;;;;;;30.45;21.73;;;16.40;99.90;;;;;;4982189;28;20396;-75
2022/05/31 04:57:37;;;;;;;36.97;22.13;;;16.40;99.90;;;;;;4971794;28;20022;-73
2022/05/31 05:00:06;;;;;;;33.63;22.88;;;16.50;99.90;;;;;;4973030;28;20066;-74
2022/05/31 05:02:37;;;;;;;35.53;20.25;;;16.60;99.90;;;;;;4971481;28;20030;-75
2022/05/31 05:05:07;;;;;;;28.85;18.40;;;16.70;99.90;;;;;;4969963;28;20601;-74
2022/05/31 05:07:48;;;;;;;26.70;18.00;;;16.80;99.90;;;;;;5003620;28;20023;-75
2022/05/31 05:10:15;;;;;;;27.77;19.48;;;16.80;99.90;;;;;;5007891;28;20039;-73
2022/05/31 05:12:57;;;;;;;25.95;17.02;;;16.90;99.90;;;;;;5001725;28;20030;-74
2022/05/31 05:15:42;;;;;;;30.13;17.42;;;16.90;99.90;;;;;;4970775;28;20101;-72
2022/05/31 05:18:11;;;;;;;27.27;17.52;;;17.00;99.90;;;;;;5015867;28;20018;-75
2022/05/31 05:20:40;;;;;;;30.15;16.95;;;16.80;99.90;;;;;;4990217;28;20497;-74
2022/05/31 05:23:07;;;;;;;28.67;17.63;;;16.90;99.90;;;;;;4989755;28;20471;-74
2022/05/31 05:25:33;;;;;;;32.13;19.85;;;17.00;99.90;;;;;;5006308;28;20054;-74
2022/05/31 05:30:38;;;;;;;33.88;21.35;;;17.00;99.90;;;;;;5007971;28;20053;-74
2022/05/31 05:30:53;;;;;;;;;;;17.10;99.90;;;;;;5026453;28;20520;-74
2022/05/31 05:33:19;;;;;;;31.75;22.23;;;17.00;99.90;;;;;;4995180;28;19941;-75
2022/05/31 05:36:01;;;;;;;35.10;22.25;;;17.10;99.90;;;;;;5009629;28;20026;-66
2022/05/31 05:38:27;;;;;;;31.77;21.73;;;17.10;99.90;;;;;;4994869;28;20030;-66
2022/05/31 05:41:24;;;;;;;27.77;19.27;;;17.20;99.90;;;;;;5011782;28;20112;-73
2022/05/31 05:44:13;;;;;;;32.35;20.73;;;17.30;99.90;;;;;;4953337;29;20039;-73
2022/05/31 05:46:39;;;;;;;33.22;19.52;;;17.40;99.90;;;;;;4937162;29;20051;-73
2022/05/31 05:49:06;;;;;;;31.38;19.00;;;17.50;99.90;;;;;;4953307;29;20493;-74
2022/05/31 05:51:33;;;;;;;27.05;16.85;;;17.70;99.90;;;;;;4953337;29;20051;-75
2022/05/31 05:54:17;;;;;;;26.42;18.35;;;17.90;99.90;;;;;;4953761;28;20035;-74
2022/05/31 05:57:02;;;;;;;26.60;18.52;;;18.20;99.90;;;;;;4953535;29;20589;-75
2022/05/31 05:59:46;;;;;;;27.27;17.85;;;18.80;99.90;;;;;;4953198;29;20130;-74
2022/05/31 06:02:32;;;;;;;24.30;17.05;;;19.20;99.90;;;;;;4953333;29;20142;-74
2022/05/31 06:05:25;;;;;;;27.25;16.55;;;19.50;99.90;;;;;;4936734;29;20775;-73
2022/05/31 06:08:00;;;;;;;24.40;14.68;;;20.00;99.90;;;;;;4951414;29;20043;-74
2022/05/31 06:10:37;;;;;;;24.55;15.60;;;20.50;99.90;;;;;;4952309;28;20039;-70
2022/05/31 06:13:15;;;;;;;22.85;16.60;;;20.60;99.90;;;;;;4936401;29;20039;-70
2022/05/31 06:15:47;;;;;;;23.02;15.35;;;20.90;99.90;;;;;;4952086;29;20497;-72
2022/05/31 06:18:15;;;;;;;;;;;20.80;99.90;;;;;;4943047;29;20032;-73
2022/05/31 06:20:46;;;;;;;25.52;15.90;;;20.90;99.90;;;;;;4964851;28;19909;-74
2022/05/31 06:23:13;;;;;;;25.58;14.75;;;20.90;99.90;;;;;;5009089;28;20026;-74
2022/05/31 06:25:39;;;;;;;28.02;14.65;;;20.90;99.90;;;;;;5008796;28;20169;-73
2022/05/31 06:28:37;;;;;;;21.55;14.48;;;20.80;99.90;;;;;;5011052;28;20506;-73
2022/05/31 06:31:03;;;;;;;21.40;14.70;;;20.70;99.90;;;;;;4994699;28;20049;-74
2022/05/31 06:33:29;;;;;;;21.35;13.35;;;20.50;99.90;;;;;;5010931;28;20026;-73
2022/05/31 06:35:55;;;;;;;23.77;14.65;;;20.20;99.90;;;;;;5011557;28;20037;-73
2022/05/31 06:38:23;;;;;;;25.85;13.93;;;19.70;99.90;;;;;;4994677;28;20060;-74
2022/05/31 06:40:52;;;;;;;28.83;16.25;;;19.40;99.90;;;;;;4994489;28;20480;-72
2022/05/31 06:43:47;;;;;;;25.98;16.65;;;19.10;99.90;;;;;;4952798;29;20046;-74
2022/05/31 06:46:32;;;;;;;26.75;17.15;;;18.80;99.90;;;;;;4952912;28;20081;-73
2022/05/31 06:49:16;;;;;;;30.05;18.63;;;18.70;99.90;;;;;;4952656;28;20616;-71
2022/05/31 06:58:17;;;;;;;32.10;18.95;;;18.30;99.90;;;;;;4932918;29;20494;-73
2022/05/31 07:00:49;;;;;;;29.65;19.88;;;18.10;99.90;;;;;;4932075;29;20059;-74
2022/05/31 07:03:15;;;;;;;27.60;19.02;;;18.20;99.90;;;;;;4914237;29;20040;-74
2022/05/31 07:05:41;;;;;;;29.52;18.98;;;18.10;99.90;;;;;;4874776;29;20451;-74
2022/05/31 07:08:09;;;;;;;30.55;19.60;;;18.10;99.90;;;;;;4875505;29;20527;-74
2022/05/31 07:11:14;;;;;;;28.75;18.77;;;18.00;99.90;;;;;;4857751;29;20085;-73
2022/05/31 07:14:00;;;;;;;28.85;19.48;;;17.80;99.90;;;;;;4839003;29;20508;-74
2022/05/31 07:16:45;;;;;;;29.52;19.48;;;17.80;99.90;;;;;;4838972;29;20136;-74
2022/05/31 07:19:39;;;;;;;28.30;19.17;;;17.70;99.90;;;;;;4862505;29;20108;-73
2022/05/31 07:22:05;;;;;;;30.73;19.08;;;17.60;99.90;;;;;;4909107;29;20430;-74
2022/05/31 07:24:37;;;;;;;31.02;20.02;;;17.60;99.90;;;;;;4909074;29;20029;-73
2022/05/31 07:27:26;;;;;;;32.70;20.25;;;17.50;99.90;;;;;;4906698;29;20047;-73
2022/05/31 07:29:58;;;;;;;28.95;17.95;;;17.50;99.90;;;;;;4948779;29;20040;-72
2022/05/31 07:32:24;;;;;;;25.75;18.38;;;17.50;99.90;;;;;;4932810;29;20046;-73
2022/05/31 07:34:50;;;;;;;31.70;19.98;;;17.40;99.90;;;;;;4948612;29;20045;-72
2022/05/31 07:37:18;;;;;;;30.65;18.73;;;17.40;99.90;;;;;;4945526;29;20443;-73
2022/05/31 07:39:44;;;;;;;36.00;20.77;;;17.50;99.90;;;;;;4946590;29;20027;-74
2022/05/31 07:42:11;;;;;;;32.08;21.60;;;17.50;99.90;;;;;;4979886;28;20050;-74
2022/05/31 07:44:39;;;;;;;35.38;19.73;;;17.60;99.90;;;;;;5004754;28;20022;-74
2022/05/31 07:47:07;;;;;;;33.55;20.83;;;17.70;99.90;;;;;;5004578;28;20425;-73
2022/05/31 07:49:33;;;;;;;34.40;21.20;;;17.70;99.90;;;;;;5004208;28;20043;-73
2022/05/31 07:52:32;;;;;;;30.98;20.90;;;17.80;99.90;;;;;;4983619;28;20053;-74
2022/05/31 07:55:17;;;;;;;31.65;20.83;;;17.90;99.90;;;;;;4973535;28;20113;-74
2022/05/31 08:01:13;;;;;;;34.03;22.40;;;18.00;99.90;;;;;;4973753;28;20061;-75
2022/05/31 08:03:43;;;;;;;35.92;24.23;;;18.00;99.90;;;;;;5004787;28;20129;-74
2022/05/31 08:06:15;;;;;;;33.95;23.50;;;18.00;99.90;;;;;;4972893;28;20478;-74
2022/05/31 08:08:41;;;;;;;;;;;18.00;99.90;;;;;;4972474;28;20038;-73
2022/05/31 08:11:20;;;;;;;35.92;23.67;;;17.80;99.90;;;;;;4973166;28;20261;-72
2022/05/31 08:13:47;;;;;;;35.35;22.77;;;17.60;99.90;;;;;;4971435;28;20061;-72
2022/05/31 08:16:15;;;;;;;36.67;25.80;;;17.50;99.90;;;;;;4971060;28;20058;-73
2022/05/31 08:18:42;;;;;;;39.65;25.10;;;17.40;99.90;;;;;;4972765;28;20035;-73
2022/05/31 08:21:11;;;;;;;35.70;23.95;;;17.40;99.90;;;;;;5003973;28;20015;-73
2022/05/31 08:23:37;;;;;;;38.25;23.63;;;17.50;99.90;;;;;;4973182;28;20541;-70
2022/05/31 08:26:04;;;;;;;38.45;25.00;;;17.40;99.90;;;;;;4972599;28;20023;-73
2022/05/31 08:28:31;;;;;;;31.65;22.42;;;17.50;99.90;;;;;;4971837;28;20031;-74
2022/05/31 08:31:00;;;;;;;34.30;24.10;;;17.50;99.90;;;;;;4973265;28;20031;-73
2022/05/31 08:33:26;;;;;;;36.40;21.38;;;17.60;99.90;;;;;;4973002;28;20474;-73
2022/05/31 08:35:53;;;;;;;36.58;25.15;;;17.60;99.90;;;;;;4972822;28;20095;-73
2022/05/31 08:38:19;;;;;;;32.80;22.92;;;17.70;99.90;;;;;;4973345;28;20517;-73
2022/05/31 08:41:04;;;;;;;33.65;24.23;;;17.70;99.90;;;;;;4973218;28;20138;-74
2022/05/31 08:43:56;;;;;;;33.65;21.55;;;17.80;99.90;;;;;;4972899;28;20436;-73
2022/05/31 08:46:58;;;;;;;35.55;22.60;;;17.90;99.90;;;;;;4989963;28;20127;-74
2022/05/31 08:52:35;;;;;;;34.00;23.60;;;18.00;99.90;;;;;;4988853;28;20283;-74
2022/05/31 08:57:56;;;;;;;33.53;22.35;;;18.50;99.90;;;;;;4989164;28;20045;-73
2022/05/31 09:00:27;;;;;;;;;;;18.50;99.90;;;;;;4989921;28;20520;-69
2022/05/31 09:03:02;;;;;;;32.25;21.90;;;18.70;99.90;;;;;;4992292;28;19910;-70
2022/05/31 09:05:35;;;;;;;32.50;23.52;;;19.00;99.90;;;;;;4991310;28;20619;-73
2022/05/31 09:08:12;;;;;;;29.27;21.27;;;19.20;99.90;;;;;;4992059;28;20042;-72
2022/05/31 09:10:43;;;;;;;31.52;21.40;;;19.40;99.90;;;;;;4992461;28;20081;-73
2022/05/31 09:13:19;;;;;;;34.75;23.33;;;19.50;99.90;;;;;;4993137;28;20030;-72
2022/05/31 09:15:48;;;;;;;32.22;23.55;;;19.90;99.90;;;;;;4992764;28;20507;-73
2022/05/31 09:18:38;;;;;;;31.02;20.98;;;20.40;99.90;;;;;;4992383;28;20035;-71
2022/05/31 09:21:13;;;;;;;29.35;22.25;;;20.70;99.90;;;;;;4992715;28;20034;-71
2022/05/31 09:23:39;;;;;;;30.17;20.48;;;21.10;99.90;;;;;;4982840;28;20094;-70
2022/05/31 09:26:05;;;;;;;29.95;21.05;;;21.20;99.90;;;;;;4975640;28;20034;-74
2022/05/31 09:28:48;;;;;;;32.45;20.38;;;21.20;99.90;;;;;;4974977;28;20027;-73
2022/05/31 09:31:39;;;;;;;26.33;19.60;;;21.60;99.90;;;;;;4970932;28;20433;-73
2022/05/31 09:34:23;;;;;;;29.00;19.10;;;21.80;99.90;;;;;;4974690;28;20520;-73
2022/05/31 09:37:10;;;;;;;32.22;19.70;;;21.70;99.90;;;;;;4975495;28;20031;-73
2022/05/31 09:40:08;;;;;;;29.15;18.90;;;22.20;99.90;;;;;;4974571;28;20464;-73
2022/05/31 09:42:45;;;;;;;25.33;17.90;;;22.10;99.90;;;;;;4975661;28;20054;-72
2022/05/31 09:45:15;;;;;;;28.77;18.77;;;22.00;99.90;;;;;;4972901;28;20034;-72
2022/05/31 09:47:41;;;;;;;27.10;17.88;;;22.00;99.90;;;;;;4971213;28;20069;-74
2022/05/31 09:50:08;;;;;;;27.48;18.15;;;22.00;99.90;;;;;;4972453;28;20047;-74
2022/05/31 09:52:45;;;;;;;27.00;15.50;;;22.20;99.90;;;;;;4974327;28;20432;-73
2022/05/31 09:58:37;;;;;;;24.23;17.27;;;22.40;99.90;;;;;;4974108;28;20421;-74
2022/05/31 10:01:14;;;;;;;26.55;17.27;;;22.40;99.90;;;;;;4975231;28;20039;-74
2022/05/31 10:03:46;;;;;;;21.73;15.77;;;22.50;99.90;;;;;;5005426;28;20429;-73
2022/05/31 10:06:25;;;;;;;21.63;15.70;;;22.30;99.90;;;;;;4974064;28;20042;-74
2022/05/31 10:08:54;;;;;;;26.38;16.95;;;22.40;99.90;;;;;;4970132;28;20564;-73
2022/05/31 10:11:37;;;;;;;21.15;14.32;;;22.60;99.90;;;;;;4973068;28;20035;-74
2022/05/31 10:14:04;;;;;;;21.55;13.70;;;22.70;99.90;;;;;;4973435;28;20118;-74
2022/05/31 10:16:37;;;;;;;19.27;13.52;;;22.70;99.90;;;;;;4974130;28;20019;-74
2022/05/31 10:19:08;;;;;;;21.55;14.25;;;22.50;99.90;;;;;;4974398;28;20047;-74
2022/05/31 10:21:43;;;;;;;20.23;13.77;;;22.50;99.90;;;;;;4974837;28;20487;-74
2022/05/31 10:24:20;;;;;;;22.10;14.02;;;22.70;99.90;;;;;;4973528;28;20503;-75
2022/05/31 10:27:06;;;;;;;19.70;13.05;;;22.80;99.90;;;;;;4974615;28;20536;-74
2022/05/31 10:30:20;;;;;;;21.73;14.80;;;23.10;99.90;;;;;;4991997;28;20046;-74
2022/05/31 10:33:24;;;;;;;18.95;13.07;;;23.10;99.90;;;;;;4991657;28;20030;-74
2022/05/31 10:36:08;;;;;;;21.20;13.65;;;23.30;99.90;;;;;;4992031;28;20551;-73
2022/05/31 10:38:38;;;;;;;19.10;13.45;;;23.40;99.90;;;;;;4991751;28;20026;-74
2022/05/31 10:41:07;;;;;;;19.88;12.85;;;23.60;99.90;;;;;;4991907;28;20409;-74
2022/05/31 10:43:49;;;;;;;19.35;13.38;;;23.70;99.90;;;;;;4991757;28;20041;-73
2022/05/31 10:46:31;;;;;;;19.88;14.35;;;23.30;99.90;;;;;;4991476;28;20176;-73
2022/05/31 10:49:01;;;;;;;20.00;13.30;;;23.20;99.90;;;;;;4991364;28;20060;-73
2022/05/31 10:51:36;;;;;;;20.52;14.50;;;23.20;99.90;;;;;;4991058;28;20042;-70
2022/05/31 10:54:34;;;;;;;22.92;16.30;;;22.30;99.90;;;;;;4986792;28;20081;-71
2022/05/31 10:57:08;;;;;;;25.00;16.35;;;22.40;99.90;;;;;;4989647;28;20543;-74
2022/05/31 10:59:35;;;;;;;23.77;16.63;;;22.50;99.90;;;;;;4988092;28;20132;-72
2022/05/31 11:02:16;;;;;;;27.52;17.70;;;22.70;99.90;;;;;;4984307;28;20038;-72
2022/05/31 11:05:01;;;;;;;23.65;16.13;;;22.30;99.90;;;;;;4989356;28;20030;-71
2022/05/31 11:07:35;;;;;;;22.90;16.25;;;22.00;99.90;;;;;;4990397;28;20492;-73
2022/05/31 11:13:47;;;;;;;21.60;14.80;;;22.50;99.90;;;;;;4974173;28;20389;-74
2022/05/31 11:16:27;;;;;;;19.00;13.38;;;22.50;99.90;;;;;;4971179;28;20049;-74
2022/05/31 11:19:17;;;;;;;19.23;12.40;;;22.60;99.90;;;;;;4971682;28;20149;-73
2022/05/31 11:21:46;;;;;;;18.65;11.63;;;22.50;99.90;;;;;;4971497;28;20049;-70
2022/05/31 11:24:20;;;;;;;19.10;12.93;;;22.50;99.90;;;;;;4971436;28;20492;-72
2022/05/31 11:26:55;;;;;;;17.00;11.85;;;22.50;99.90;;;;;;4970856;28;20097;-74
2022/05/31 11:29:33;;;;;;;20.00;12.25;;;22.90;99.90;;;;;;4971069;28;20155;-72
2022/05/31 11:32:32;;;;;;;19.45;12.70;;;22.80;99.90;;;;;;4970868;28;20436;-74
2022/05/31 11:35:00;;;;;;;22.52;12.88;;;22.90;99.90;;;;;;4971156;28;20031;-72
2022/05/31 11:38:10;;;;;;;22.38;11.88;;;22.60;99.90;;;;;;4971161;28;20030;-74
2022/05/31 11:41:21;;;;;;;18.35;11.45;;;22.50;99.90;;;;;;4913699;29;20048;-73
2022/05/31 11:44:07;;;;;;;17.98;12.60;;;22.80;99.90;;;;;;4876174;29;20432;-69
2022/05/31 11:46:56;;;;;;;18.55;11.98;;;23.10;99.90;;;;;;4875718;29;20124;-73
2022/05/31 11:49:54;;;;;;;17.67;12.27;;;23.20;99.90;;;;;;4875894;29;20045;-73
2022/05/31 11:52:26;;;;;;;17.67;11.40;;;23.20;99.90;;;;;;4816464;29;20135;-72
2022/05/31 11:55:28;;;;;;;21.00;11.80;;;22.90;99.90;;;;;;4802903;29;20047;-74
2022/05/31 11:58:17;;;;;;;28.40;10.85;;;22.90;99.90;;;;;;4802731;29;20041;-73
2022/05/31 12:01:02;;;;;;;17.38;10.65;;;22.50;99.90;;;;;;4802685;29;20079;-72
2022/05/31 12:04:06;;;;;;;15.52;10.35;;;22.90;99.90;;;;;;4802693;29;20047;-73
2022/05/31 12:06:45;;;;;;;16.95;11.18;;;22.80;99.90;;;;;;4802623;29;20043;-73
2022/05/31 12:09:35;;;;;;;15.25;9.23;;;23.00;99.90;;;;;;4802753;29;20490;-72
2022/05/31 12:12:10;;;;;;;15.35;9.80;;;23.20;99.90;;;;;;4802387;29;20089;-73
2022/05/31 12:14:39;;;;;;;22.23;10.27;;;23.20;99.90;;;;;;4802429;29;20038;-72
2022/05/31 12:17:06;;;;;;;19.98;11.63;;;23.20;99.90;;;;;;4830339;29;20109;-74
2022/05/31 12:19:56;;;;;;;13.70;8.48;;;23.50;99.90;;;;;;4888238;29;20092;-71
2022/05/31 12:22:28;;;;;;;15.85;8.48;;;23.30;99.90;;;;;;4913716;29;20115;-73
2022/05/31 12:25:04;;;;;;;14.65;7.68;;;23.50;99.90;;;;;;4913317;29;20487;-71
2022/05/31 12:27:45;;;;;;;11.30;7.25;;;23.20;99.90;;;;;;4912941;29;20379;-73
2022/05/31 12:30:20;;;;;;;12.43;6.90;;;23.30;99.90;;;;;;4961132;28;20109;-74
2022/05/31 12:32:49;;;;;;;11.63;7.38;;;23.60;99.90;;;;;;4973067;28;20093;-73
2022/05/31 12:35:30;;;;;;;14.60;7.30;;;23.80;99.90;;;;;;4972882;28;20035;-74
2022/05/31 12:38:01;;;;;;;10.32;7.25;;;24.00;99.90;;;;;;4976120;28;20045;-71
2022/05/31 12:40:33;;;;;;;18.90;8.38;;;23.80;99.90;;;;;;4976805;28;20023;-73
2022/05/31 12:43:11;;;;;;;12.23;7.55;;;24.00;99.90;;;;;;4977137;28;20058;-70
2022/05/31 12:45:40;;;;;;;12.32;6.90;;;23.90;99.90;;;;;;4977072;28;20030;-73
2022/05/31 12:48:15;;;;;;;13.40;7.40;;;23.90;99.90;;;;;;4976424;28;20070;-72
2022/05/31 12:51:11;;;;;;;13.40;7.25;;;23.90;99.90;;;;;;4976463;28;20077;-73
2022/05/31 12:53:39;;;;;;;12.30;7.93;;;24.10;99.90;;;;;;4976748;28;20041;-74
2022/05/31 12:56:26;;;;;;;13.13;7.47;;;24.40;99.90;;;;;;4976654;28;20022;-74
2022/05/31 12:58:52;;;;;;;12.35;8.00;;;24.10;99.90;;;;;;4976962;28;20397;-73
2022/05/31 13:01:19;;;;;;;10.75;7.28;;;24.20;99.90;;;;;;4976469;28;20023;-72
2022/05/31 13:03:57;;;;;;;12.65;8.10;;;24.00;99.90;;;;;;4976444;28;20357;-72
2022/05/31 13:06:28;;;;;;;10.25;7.05;;;23.70;99.90;;;;;;4976256;28;20034;-72
2022/05/31 13:08:59;;;;;;;13.68;7.63;;;24.00;99.90;;;;;;4976509;28;20043;-73
2022/05/31 13:20:23;;;;;;;10.85;6.75;;;24.10;99.90;;;;;;4975994;28;20121;-73
2022/05/31 13:22:54;;;;;;;16.00;7.10;;;24.10;99.90;;;;;;4991266;28;20030;-73
2022/05/31 13:25:37;;;;;;;11.37;7.03;;;24.10;99.90;;;;;;4995271;28;20080;-73
2022/05/31 13:28:03;;;;;;;;;;;23.90;99.90;;;;;;4995708;28;20541;-72
2022/05/31 13:30:34;;;;;;;17.90;6.53;;;24.00;99.90;;;;;;4994524;28;20009;-65
2022/05/31 13:33:16;;;;;;;11.70;6.03;;;24.00;99.90;;;;;;4981337;28;20081;-73
2022/05/31 13:35:43;;;;;;;9.43;5.55;;;24.10;99.90;;;;;;4995531;28;20113;-72
2022/05/31 13:38:22;;;;;;;7.22;4.88;;;24.10;99.90;;;;;;4995347;28;20027;-73
2022/05/31 13:40:51;;;;;;;7.43;5.25;;;24.00;99.90;;;;;;4995231;28;20034;-73